CWEU

Eureka Airport

Eureka, Canada

CWEU 112200Z VRB03KT 7SM -SN DRSN OVC050 M16/M18 A2950 RMK SC8 SLP993

Observed Flight Rules
Dec-11 @ 22:00 UTC (44 minutes ago) Visual Flight Rules
Wind Visibility Clouds Conditions
Variable at 3 knots 7 miles
  • Overcast at 5,000' AGL
  • Light Snow
  • Low drifting
  • Snow
Temperatures Readings
Current -16°C / 3°F
Dewpoint -18°C / -0°F
Humidity 85%
Altimeter 29.5" Hg
Pressure 999.3 hPa
Elevation 10
Observed Flight Rules
Dec-11 @ 22:00 UTC
(44 minutes ago)
VFR
Wind Visibility
Variable at 3 knots 7 miles
Clouds
  • Overcast at 5,000' AGL
Conditions
  • Light Snow
  • Low drifting
  • Snow
Temperature Dewpoint
-16°C / 3°F -18°C / -0°F
Humidity Altimeter Pressure
85% 29.5" Hg 999.3 hPa